Time;durP1;ratioP1;P1;durP2;ratioP2;P2;SDS_P1;SDS_P2;PMS_P1;PMS_P2;Temp;Humidity;BMP_temperature;BMP_pressure;BME280_temperature;BME280_humidity;BME280_pressure;Samples;Min_cycle;Max_cycle;Signal;HPM_P1;HPM_P2
2022/11/30 00:00:58;;;;;;;26.37;12.05;;;;;;;2.26;100.00;148236.66;1796170;80;20881;-60
2022/11/30 00:03:25;;;;;;;22.42;11.15;;;;;;;2.27;100.00;148239.25;1796213;80;20897;-61
2022/11/30 00:05:51;;;;;;;23.05;11.48;;;;;;;2.28;100.00;148241.81;1796193;79;20908;-60
2022/11/30 00:08:18;;;;;;;25.48;11.73;;;;;;;2.29;100.00;148244.39;1796188;80;21003;-62
2022/11/30 00:10:45;;;;;;;27.20;12.93;;;;;;;2.31;100.00;148246.97;1796210;80;21275;-62
2022/11/30 00:13:12;;;;;;;30.50;11.08;;;;;;;2.29;100.00;148244.39;1796131;80;20956;-62
2022/11/30 00:15:40;;;;;;;33.20;12.93;;;;;;;2.29;100.00;148244.39;1796129;80;20896;-62
2022/11/30 00:18:07;;;;;;;20.60;10.75;;;;;;;2.29;100.00;148243.13;1796180;80;20897;-62
2022/11/30 00:20:34;;;;;;;22.82;11.75;;;;;;;2.26;100.00;148236.66;1796155;80;20983;-60
2022/11/30 00:23:01;;;;;;;23.05;10.68;;;;;;;2.24;100.00;148230.25;1796277;80;21240;-62
2022/11/30 00:25:28;;;;;;;25.00;10.65;;;;;;;2.23;100.00;148227.67;1795904;80;20904;-65
2022/11/30 00:27:55;;;;;;;21.65;10.58;;;;;;;2.21;100.00;148223.78;1796220;80;21330;-65
2022/11/30 00:30:22;;;;;;;24.23;10.13;;;;;;;2.18;100.00;148214.73;1793431;80;21472;-65
2022/11/30 00:32:49;;;;;;;23.38;10.72;;;;;;;2.16;100.00;148210.91;1796243;80;21027;-65
2022/11/30 00:35:16;;;;;;;21.87;9.98;;;;;;;2.15;100.00;148209.59;1796148;80;21311;-62
2022/11/30 00:37:43;;;;;;;22.58;9.88;;;;;;;2.16;100.00;148210.91;1796328;80;20916;-62
2022/11/30 00:40:11;;;;;;;23.98;11.25;;;;;;;2.16;100.00;148210.91;1755571;81;21012;-62
2022/11/30 00:42:38;;;;;;;22.98;11.08;;;;;;;2.16;100.00;148210.91;1735748;82;21418;-62
2022/11/30 00:45:07;;;;;;;27.02;10.48;;;;;;;2.13;100.00;148203.17;1735976;82;20996;-61
2022/11/30 00:47:34;;;;;;;24.23;11.25;;;;;;;2.13;100.00;148203.17;1736012;82;21307;-62
2022/11/30 00:50:03;;;;;;;24.63;11.20;;;;;;;2.12;100.00;148200.59;1735934;82;21012;-61
2022/11/30 00:52:30;;;;;;;21.23;9.90;;;;;;;2.12;100.00;148200.59;1736016;82;20984;-61
2022/11/30 00:54:56;;;;;;;26.27;11.15;;;;;;;2.12;100.00;148201.86;1735896;82;20968;-62
2022/11/30 00:57:23;;;;;;;23.12;10.93;;;;;;;2.14;100.00;148205.75;1751115;82;21517;-62
2022/11/30 00:59:50;;;;;;;27.60;11.45;;;;;;;2.15;100.00;148208.33;1751190;82;21643;-62
2022/11/30 01:02:17;;;;;;;32.50;10.38;;;;;;;2.15;100.00;148208.33;1750918;82;20945;-62
2022/11/30 01:04:43;;;;;;;21.60;10.13;;;;;;;2.17;100.00;148212.16;1751094;82;21315;-62
2022/11/30 01:07:10;;;;;;;21.10;9.48;;;;;;;2.18;100.00;148216.06;1750946;82;21019;-62
2022/11/30 01:09:37;;;;;;;26.87;9.33;;;;;;;2.20;100.00;148221.20;1750960;82;20948;-61
2022/11/30 01:12:04;;;;;;;25.55;8.68;;;;;;;2.21;100.00;148223.78;1751000;82;21255;-62
2022/11/30 01:14:31;;;;;;;26.35;9.25;;;;;;;2.21;100.00;148223.78;1750976;82;20937;-61
2022/11/30 01:16:58;;;;;;;22.77;8.35;;;;;;;2.24;100.00;148231.52;1751079;82;21367;-62
2022/11/30 01:19:25;;;;;;;21.17;9.03;;;;;;;2.26;100.00;148236.66;1750959;82;20969;-61
2022/11/30 01:21:52;;;;;;;22.02;9.10;;;;;;;2.26;100.00;148236.66;1751106;82;20952;-61
2022/11/30 01:24:20;;;;;;;18.07;8.15;;;;;;;2.26;100.00;148236.66;1751006;82;21765;-62
2022/11/30 01:27:05;;;;;;;23.77;8.35;;;;;;;2.28;100.00;148241.81;1750881;82;20846;-62
2022/11/30 01:29:31;;;;;;;17.25;7.28;;;;;;;2.31;100.00;148246.97;1751151;82;21008;-61
2022/11/30 01:31:58;;;;;;;22.37;6.97;;;;;;;2.33;100.00;148252.17;1751061;81;21000;-61
2022/11/30 01:34:25;;;;;;;21.57;7.78;;;;;;;2.33;100.00;148252.17;1750990;82;21055;-60
2022/11/30 01:36:52;;;;;;;17.95;6.83;;;;;;;2.35;100.00;148210.39;1751012;82;21901;-62
2022/11/30 01:39:19;;;;;;;25.45;6.65;;;;;;;2.34;100.00;148256.02;1751347;81;20909;-63
2022/11/30 01:41:46;;;;;;;21.25;6.97;;;;;;;2.31;100.00;148248.28;1758864;81;20924;-62
2022/11/30 01:44:25;;;;;;;27.50;7.20;;;;;;;2.30;100.00;148245.70;1758733;81;20989;-62
2022/11/30 01:47:06;;;;;;;17.25;6.67;;;;;;;2.32;100.00;148250.86;1758395;81;20913;-62
2022/11/30 01:49:43;;;;;;;18.20;5.90;;;;;;;2.34;100.00;148254.75;1758775;81;21194;-62
2022/11/30 01:52:18;;;;;;;19.32;5.53;;;;;;;2.33;100.00;148252.17;1758731;81;20885;-62
2022/11/30 01:54:56;;;;;;;18.20;5.72;;;;;;;2.33;100.00;148253.44;1758873;81;20973;-62
2022/11/30 01:57:40;;;;;;;20.25;6.17;;;;;;;2.33;100.00;148252.17;1758582;81;20984;-62
2022/11/30 02:00:09;;;;;;;15.20;5.83;;;;;;;2.34;100.00;148254.75;1759080;81;20897;-62
2022/11/30 02:03:10;;;;;;;14.55;5.62;;;;;;;2.34;100.00;148254.75;1758876;81;21306;-62
2022/11/30 02:05:38;;;;;;;17.40;5.53;;;;;;;2.33;100.00;148252.17;1708294;81;20933;-62
2022/11/30 02:08:07;;;;;;;17.32;5.55;;;;;;;2.34;100.00;148254.75;1758568;81;21377;-62
2022/11/30 02:10:37;;;;;;;18.62;5.72;;;;;;;2.32;100.00;148250.86;1758709;81;21429;-65
2022/11/30 02:13:43;;;;;;;22.73;5.95;;;;;;;2.33;100.00;148252.17;1758835;81;21449;-65
2022/11/30 02:16:21;;;;;;;19.17;5.20;;;;;;;2.34;100.00;148254.75;1758711;81;21148;-60
2022/11/30 02:19:18;;;;;;;16.97;5.92;;;;;;;2.32;100.00;148250.86;1758652;81;20951;-60
2022/11/30 02:22:05;;;;;;;10.50;4.33;;;;;;;2.31;100.00;148246.97;1758945;81;20928;-64
2022/11/30 02:24:43;;;;;;;20.02;5.58;;;;;;;2.26;100.00;148236.66;1758619;81;20944;-61
2022/11/30 02:27:36;;;;;;;19.27;6.17;;;;;;;2.22;100.00;148225.09;1739379;81;21413;-61
2022/11/30 02:30:13;;;;;;;16.87;5.75;;;;;;;2.19;100.00;148217.31;1758664;81;21252;-65
2022/11/30 02:32:57;;;;;;;15.45;5.20;;;;;;;2.17;100.00;148212.16;1758593;81;20885;-65
2022/11/30 02:35:27;;;;;;;21.02;5.20;;;;;;;2.16;100.00;148210.91;1757685;81;20968;-64
2022/11/30 02:37:54;;;;;;;16.02;5.65;;;;;;;2.17;100.00;148212.16;1758588;81;20952;-64
2022/11/30 02:40:22;;;;;;;21.80;6.22;;;;;;;2.15;100.00;148208.33;1759000;81;21473;-64
2022/11/30 02:42:50;;;;;;;18.42;5.53;;;;;;;2.18;100.00;148216.06;1760292;81;21201;-64
2022/11/30 02:45:21;;;;;;;12.75;4.97;;;;;;;2.18;100.00;148216.06;1760156;81;20917;-64
2022/11/30 02:48:07;;;;;;;23.92;6.55;;;;;;;2.17;100.00;148213.47;1760227;81;20905;-64
2022/11/30 02:50:44;;;;;;;19.92;5.90;;;;;;;2.17;100.00;148213.47;1697291;81;21031;-64
2022/11/30 02:53:12;;;;;;;18.92;5.80;;;;;;;2.17;100.00;148213.47;1760276;81;21481;-64
2022/11/30 02:55:39;;;;;;;19.60;5.90;;;;;;;2.17;100.00;148213.47;1760340;81;21215;-63
2022/11/30 02:58:06;;;;;;;16.93;6.12;;;;;;;2.17;100.00;148212.16;1760161;81;20893;-63
2022/11/30 03:00:33;;;;;;;24.52;6.22;;;;;;;2.17;100.00;148212.16;1760483;81;21000;-63
2022/11/30 03:03:00;;;;;;;17.62;5.33;;;;;;;2.18;100.00;148216.06;1760356;81;20988;-63
2022/11/30 03:05:27;;;;;;;16.17;5.53;;;;;;;2.19;100.00;148218.62;1760285;81;20921;-63
2022/11/30 03:07:54;;;;;;;18.30;5.75;;;;;;;2.18;100.00;148216.06;1760391;81;21433;-64
2022/11/30 03:10:20;;;;;;;23.25;6.12;;;;;;;2.20;100.00;148221.20;1760220;81;20976;-63
2022/11/30 03:12:47;;;;;;;23.62;5.92;;;;;;;2.19;100.00;148218.62;1760362;81;20901;-64
2022/11/30 03:15:14;;;;;;;18.17;6.00;;;;;;;2.17;100.00;148213.47;1760215;81;20972;-63
2022/11/30 03:17:41;;;;;;;21.75;6.05;;;;;;;2.17;100.00;148213.47;1760397;81;21313;-63
2022/11/30 03:20:09;;;;;;;17.30;5.37;;;;;;;2.18;100.00;148216.06;1760450;81;21242;-64
2022/11/30 03:22:36;;;;;;;24.57;5.90;;;;;;;2.15;100.00;148209.59;1760245;81;21035;-64
2022/11/30 03:25:04;;;;;;;16.25;5.92;;;;;;;2.14;100.00;148205.75;1760275;81;20956;-63
2022/11/30 03:27:30;;;;;;;20.75;5.85;;;;;;;2.13;100.00;148204.44;1760221;81;21477;-63
2022/11/30 03:29:57;;;;;;;18.90;6.55;;;;;;;2.16;100.00;148210.91;1760394;81;20861;-64
2022/11/30 03:32:24;;;;;;;21.12;6.17;;;;;;;2.14;100.00;148205.75;1760376;81;21213;-61
2022/11/30 03:34:50;;;;;;;28.12;5.85;;;;;;;2.12;100.00;148200.59;1760349;81;20925;-64
2022/11/30 03:37:17;;;;;;;14.93;5.75;;;;;;;2.09;100.00;148192.81;1760094;81;21477;-64
2022/11/30 03:39:44;;;;;;;24.85;6.62;;;;;;;2.06;100.00;148186.41;1760207;81;21181;-63
2022/11/30 03:42:11;;;;;;;17.20;6.17;;;;;;;2.04;100.00;148181.25;1760305;81;21416;-64
2022/11/30 03:44:37;;;;;;;19.52;7.05;;;;;;;2.03;100.00;148177.36;1760402;81;21451;-63
2022/11/30 03:47:05;;;;;;;14.47;5.75;;;;;;;2.01;100.00;148173.53;1760435;81;21064;-63
2022/11/30 03:49:32;;;;;;;16.25;6.00;;;;;;;2.02;100.00;148174.78;1760370;81;20921;-63
2022/11/30 03:51:59;;;;;;;17.80;5.65;;;;;;;2.02;100.00;148174.78;1760284;81;21402;-64
2022/11/30 03:54:26;;;;;;;17.77;5.85;;;;;;;2.02;100.00;148174.78;1760279;81;21080;-64
2022/11/30 03:56:53;;;;;;;20.08;5.65;;;;;;;2.01;100.00;148173.53;1760201;81;21140;-63
2022/11/30 03:59:19;;;;;;;23.92;6.65;;;;;;;2.00;100.00;148170.94;1760335;81;20841;-63
2022/11/30 04:01:47;;;;;;;18.07;6.28;;;;;;;2.00;100.00;148172.22;1760399;81;20948;-64
2022/11/30 04:04:14;;;;;;;14.85;6.50;;;;;;;1.99;100.00;147735.44;1760396;81;20968;-63
2022/11/30 04:06:41;;;;;;;15.25;5.30;;;;;;;2.00;100.00;146542.89;1760498;81;21032;-64
2022/11/30 04:09:09;;;;;;;25.12;5.85;;;;;;;1.97;100.00;144422.11;1760264;81;21251;-63
2022/11/30 04:11:35;;;;;;;17.52;5.92;;;;;;;1.95;100.00;142511.30;1760448;81;21007;-64
2022/11/30 04:14:02;;;;;;;19.27;6.47;;;;;;;1.91;100.00;142160.25;1760323;81;21417;-65
2022/11/30 04:16:29;;;;;;;16.37;6.10;;;;;;;1.88;100.00;144291.09;1760289;81;20980;-63
2022/11/30 04:18:56;;;;;;;19.42;6.53;;;;;;;1.86;100.00;138718.36;1760355;81;20950;-65
2022/11/30 04:21:23;;;;;;;16.73;6.37;;;;;;;1.82;100.00;134606.06;1760295;81;21251;-65
2022/11/30 11:47:39;;;;;;;13.60;4.57;;;;;;;1.04;100.00;147932.55;1823677;78;22898;-60
2022/11/30 11:50:29;;;;;;;9.25;4.47;;;;;;;0.97;100.00;147914.48;1785436;80;20874;-60
2022/11/30 11:53:24;;;;;;;12.20;4.95;;;;;;;0.95;100.00;147909.33;1785380;80;21992;-60
2022/11/30 11:56:05;;;;;;;11.60;5.57;;;;;;;0.96;100.00;147913.22;1785660;80;20898;-61
2022/11/30 11:58:44;;;;;;;14.87;5.67;;;;;;;0.95;100.00;147909.33;1785217;79;20914;-61
2022/11/30 12:01:24;;;;;;;13.48;5.00;;;;;;;0.94;100.00;147906.77;1785229;80;21410;-61
2022/11/30 12:04:00;;;;;;;10.48;4.80;;;;;;;0.93;100.00;147904.19;1741758;80;20972;-60
2022/11/30 12:06:26;;;;;;;;;;;;;;;0.92;100.00;147902.92;1788030;80;21961;-60
2022/11/30 12:09:00;;;;;;;14.03;5.42;;;;;;;0.89;100.00;147893.89;1785402;80;20110;-61
2022/11/30 12:11:42;;;;;;;12.45;5.85;;;;;;;0.87;100.00;147888.75;1785205;80;20977;-61
2022/11/30 12:14:12;;;;;;;15.13;5.10;;;;;;;0.85;100.00;147884.86;1785386;80;20890;-60
2022/11/30 12:17:10;;;;;;;13.38;5.15;;;;;;;0.84;100.00;147883.59;1785339;80;21059;-61
2022/11/30 12:20:32;;;;;;;14.63;5.53;;;;;;;0.85;100.00;147886.17;1785450;80;21141;-61
2022/11/30 12:23:28;;;;;;;13.13;4.75;;;;;;;0.88;100.00;147892.58;1785139;80;20964;-61
2022/11/30 12:26:11;;;;;;;;;;;;;;;0.90;100.00;147897.78;1787999;79;20910;-61
2022/11/30 12:29:03;;;;;;;11.28;4.45;;;;;;;0.88;100.00;147891.31;1777180;79;20333;-61
2022/11/30 12:31:59;;;;;;;13.45;5.65;;;;;;;0.87;100.00;147888.75;1730735;80;21059;-60
2022/11/30 12:34:55;;;;;;;16.35;5.50;;;;;;;0.84;100.00;147882.28;1783437;80;21122;-60
2022/11/30 12:37:47;;;;;;;11.85;5.78;;;;;;;0.83;100.00;147879.72;1757653;80;20917;-60
2022/11/30 12:40:41;;;;;;;11.05;5.20;;;;;;;0.84;100.00;147882.28;1775281;80;20933;-59
2022/11/30 12:43:33;;;;;;;12.03;5.25;;;;;;;0.84;100.00;147883.59;1777803;80;20891;-60
2022/11/30 12:46:24;;;;;;;18.27;5.90;;;;;;;0.84;100.00;147883.59;1772393;80;20889;-61
2022/11/30 12:49:14;;;;;;;12.13;5.05;;;;;;;0.84;100.00;147882.28;1774193;80;21950;-60
2022/11/30 12:52:02;;;;;;;15.95;5.53;;;;;;;0.84;100.00;147883.59;1777976;80;20985;-62
2022/11/30 12:54:44;;;;;;;19.87;6.97;;;;;;;0.81;100.00;147875.88;1784115;80;20867;-63
2022/11/30 12:57:37;;;;;;;19.57;5.83;;;;;;;0.80;100.00;147872.00;1789426;80;21037;-63
2022/11/30 13:00:19;;;;;;;15.05;6.05;;;;;;;0.79;100.00;147869.42;1790441;80;20969;-62
2022/11/30 13:03:13;;;;;;;16.67;5.30;;;;;;;0.77;100.00;147865.53;1789915;79;21215;-62
2022/11/30 13:05:51;;;;;;;12.88;5.37;;;;;;;0.77;100.00;147864.28;1790048;79;21043;-62
2022/11/30 13:08:31;;;;;;;14.93;4.85;;;;;;;0.75;100.00;147860.39;1790499;79;21190;-62
2022/11/30 13:11:06;;;;;;;17.35;5.12;;;;;;;0.72;100.00;147852.67;1788675;79;20922;-62
2022/11/30 13:13:34;;;;;;;7.75;4.40;;;;;;;0.69;100.00;147844.95;1787640;79;20941;-62
2022/11/30 13:16:04;;;;;;;15.83;4.97;;;;;;;0.67;100.00;147839.81;1773803;80;21574;-63
2022/11/30 13:18:36;;;;;;;20.55;5.35;;;;;;;0.64;100.00;147832.08;1776745;80;20960;-62
2022/11/30 13:21:26;;;;;;;10.05;4.62;;;;;;;0.62;100.00;147826.94;1789789;80;20941;-63
2022/11/30 13:24:07;;;;;;;13.43;5.87;;;;;;;0.59;100.00;147819.22;1786288;80;21060;-63
2022/11/30 13:26:52;;;;;;;20.37;6.15;;;;;;;0.60;100.00;147821.78;1789518;80;21064;-62
2022/11/30 13:29:45;;;;;;;12.03;5.12;;;;;;;0.59;100.00;147819.22;1789576;80;21244;-62
2022/11/30 13:32:15;;;;;;;10.32;4.97;;;;;;;0.58;100.00;147816.64;1789281;79;21069;-63
2022/11/30 13:34:42;;;;;;;13.35;5.03;;;;;;;0.56;100.00;147814.08;1789566;79;20926;-63
2022/11/30 13:37:19;;;;;;;13.20;5.33;;;;;;;0.55;100.00;147811.50;1789760;79;20937;-63
2022/11/30 13:39:55;;;;;;;14.35;5.87;;;;;;;0.54;100.00;147808.88;1789124;79;21083;-63
2022/11/30 13:42:42;;;;;;;12.68;5.42;;;;;;;0.52;100.00;147803.73;1789446;79;21460;-63
2022/11/30 13:45:17;;;;;;;15.25;6.08;;;;;;;0.52;100.00;147803.73;1789493;80;21028;-62
2022/11/30 13:47:51;;;;;;;14.20;5.75;;;;;;;0.51;100.00;147801.16;1788324;79;21048;-63
2022/11/30 13:50:38;;;;;;;16.70;5.47;;;;;;;0.51;100.00;147801.16;1789180;80;20995;-62
2022/11/30 13:53:22;;;;;;;14.60;5.05;;;;;;;0.50;100.00;147798.59;1788665;79;21489;-62
2022/11/30 13:56:19;;;;;;;14.18;6.15;;;;;;;0.50;100.00;147797.33;1774647;80;22313;-62
2022/11/30 13:59:23;;;;;;;14.90;5.83;;;;;;;0.49;100.00;147796.02;1789125;80;21041;-63
2022/11/30 14:02:09;;;;;;;12.88;4.90;;;;;;;0.49;100.00;147794.75;1771814;79;21009;-62
2022/11/30 14:04:44;;;;;;;16.57;5.87;;;;;;;0.50;100.00;147798.59;1768515;79;21327;-62
2022/11/30 14:07:36;;;;;;;14.90;6.10;;;;;;;0.49;100.00;147796.02;1790384;80;20913;-62
2022/11/30 14:10:04;;;;;;;12.43;5.45;;;;;;;0.47;100.00;147790.87;1790180;80;21113;-61
2022/11/30 14:12:36;;;;;;;16.67;6.90;;;;;;;0.45;100.00;147784.47;1770713;80;20890;-62
2022/11/30 14:15:43;;;;;;;15.70;5.62;;;;;;;0.42;100.00;147778.00;1790246;80;21354;-62
2022/11/30 14:18:23;;;;;;;16.75;5.67;;;;;;;0.41;100.00;147775.44;1790293;79;20905;-61
2022/11/30 14:20:58;;;;;;;17.85;5.97;;;;;;;0.41;100.00;147775.44;1790387;79;20889;-62
2022/11/30 14:23:52;;;;;;;15.28;6.00;;;;;;;0.42;100.00;147778.00;1790281;79;21854;-62
2022/11/30 14:26:28;;;;;;;15.18;5.35;;;;;;;0.42;100.00;147778.00;1785188;80;21351;-61
2022/11/30 14:29:09;;;;;;;19.85;6.58;;;;;;;0.40;100.00;147772.86;1790197;78;21007;-63
2022/11/30 14:31:47;;;;;;;14.70;5.85;;;;;;;0.39;100.00;147770.28;1790369;80;21377;-62
2022/11/30 14:34:31;;;;;;;13.65;5.55;;;;;;;0.38;100.00;147767.72;1788048;79;21417;-62
2022/11/30 14:37:06;;;;;;;14.30;5.12;;;;;;;0.36;100.00;147762.56;1790266;78;21881;-62
2022/11/30 14:39:37;;;;;;;14.20;5.63;;;;;;;0.34;100.00;147758.69;1788212;78;20897;-62
2022/11/30 14:42:05;;;;;;;14.53;5.30;;;;;;;0.33;100.00;147754.81;1770498;80;20843;-62
2022/11/30 14:44:37;;;;;;;13.85;5.45;;;;;;;0.31;100.00;147749.66;1790269;79;20956;-62
2022/11/30 14:47:31;;;;;;;11.97;5.22;;;;;;;0.29;100.00;147745.83;1767305;80;21398;-62
2022/11/30 14:50:04;;;;;;;17.30;6.58;;;;;;;0.30;100.00;147747.09;1779251;79;21300;-64
2022/11/30 14:53:05;;;;;;;16.40;6.12;;;;;;;0.28;100.00;147744.52;1777984;80;20961;-63
2022/11/30 14:55:51;;;;;;;17.60;5.60;;;;;;;0.28;100.00;147744.52;1779191;80;20972;-65
2022/11/30 14:58:48;;;;;;;14.53;5.60;;;;;;;0.28;100.00;147744.52;1778911;79;20981;-65
2022/11/30 15:01:25;;;;;;;13.30;5.60;;;;;;;0.29;100.00;147745.83;1771629;80;21024;-64
2022/11/30 15:03:56;;;;;;;14.07;5.37;;;;;;;0.30;100.00;147747.09;1775639;80;21871;-64
2022/11/30 15:06:28;;;;;;;10.48;5.35;;;;;;;0.26;100.00;147739.37;1780677;80;21064;-62
2022/11/30 15:08:56;;;;;;;13.70;5.75;;;;;;;0.27;100.00;147740.69;1781573;80;21051;-63
2022/11/30 15:11:22;;;;;;;12.82;6.03;;;;;;;0.28;100.00;147744.52;1781798;79;21438;-64
2022/11/30 15:13:53;;;;;;;15.05;5.50;;;;;;;0.28;100.00;147743.25;1781895;80;21032;-63
2022/11/30 15:16:27;;;;;;;22.58;6.78;;;;;;;0.25;100.00;147736.80;1781570;79;21489;-62
2022/11/30 15:18:55;;;;;;;15.58;5.70;;;;;;;0.23;100.00;147730.39;1781782;80;21037;-63
2022/11/30 15:21:26;;;;;;;15.85;6.37;;;;;;;0.22;100.00;147729.08;1760052;80;20965;-63
2022/11/30 15:23:54;;;;;;;15.90;6.10;;;;;;;0.22;100.00;147729.08;1781622;79;20969;-63
2022/11/30 15:26:41;;;;;;;15.18;5.55;;;;;;;0.23;100.00;147731.66;1781839;79;20933;-63
2022/11/30 15:29:33;;;;;;;19.73;6.47;;;;;;;0.22;100.00;147729.08;1781672;80;21230;-62
2022/11/30 15:32:02;;;;;;;16.30;6.53;;;;;;;0.21;100.00;147726.50;1781747;80;21366;-63
2022/11/30 15:34:47;;;;;;;17.82;7.78;;;;;;;0.22;100.00;147729.08;1759873;80;21414;-63
2022/11/30 15:37:16;;;;;;;16.37;6.17;;;;;;;0.23;100.00;147731.66;1781849;79;21031;-62
2022/11/30 15:39:54;;;;;;;19.87;6.20;;;;;;;0.25;100.00;147736.80;1781724;79;20894;-62
2022/11/30 15:42:28;;;;;;;13.40;5.70;;;;;;;0.26;100.00;147739.37;1782082;79;21860;-63
2022/11/30 15:45:17;;;;;;;30.17;8.65;;;;;;;0.26;100.00;147738.11;1781851;79;21414;-63
2022/11/30 15:47:43;;;;;;;17.23;6.53;;;;;;;0.24;100.00;147734.22;1777779;79;21033;-62
2022/11/30 15:50:31;;;;;;;16.73;6.65;;;;;;;0.26;100.00;147738.11;1773488;81;21013;-63
2022/11/30 15:53:14;;;;;;;12.53;5.60;;;;;;;0.25;100.00;147736.80;1773565;81;20931;-63
2022/11/30 15:55:50;;;;;;;18.57;5.90;;;;;;;0.28;100.00;147743.25;1754688;80;22498;-63
2022/11/30 15:58:45;;;;;;;21.45;6.50;;;;;;;0.30;100.00;147747.09;1773706;81;21052;-63
2022/11/30 16:01:19;;;;;;;19.00;6.90;;;;;;;0.28;100.00;147744.52;1773877;81;24880;-63
